Time;durP1;ratioP1;P1;durP2;ratioP2;P2;SDS_P1;SDS_P2;PMS_P1;PMS_P2;Temp;Humidity;BMP_temperature;BMP_pressure;BME280_temperature;BME280_humidity;BME280_pressure;Samples;Min_cycle;Max_cycle;Signal;HPM_P1;HPM_P2
2022/03/02 00:01:54;;;;;;;44.17;34.30;;;;;;;4.94;nan;102609.50;5072085;28;20028;-58
2022/03/02 00:04:20;;;;;;;44.58;34.55;;;;;;;4.95;nan;102617.38;5072294;28;20031;-56
2022/03/02 00:06:46;;;;;;;41.70;35.15;;;;;;;4.86;nan;102598.91;5057019;28;20035;-58
2022/03/02 00:09:11;;;;;;;43.20;33.95;;;;;;;4.91;nan;102610.31;5038936;28;20060;-58
2022/03/02 00:11:36;;;;;;;40.60;33.10;;;;;;;4.47;nan;102536.44;5074652;28;20040;-57
2022/03/02 00:14:03;;;;;;;41.08;34.50;;;;;;;4.89;nan;102611.13;5056722;28;20086;-59
2022/03/02 00:16:29;;;;;;;48.35;36.65;;;;;;;4.77;nan;102592.63;5074577;28;20033;-58
2022/03/02 00:18:56;;;;;;;45.40;33.92;;;;;;;4.88;nan;102611.97;5074803;28;20040;-58
2022/03/02 00:21:21;;;;;;;48.35;35.03;;;;;;;4.80;nan;102595.31;5074653;28;20136;-58
2022/03/02 00:23:46;;;;;;;44.70;33.88;;;;;;;4.81;nan;102597.97;5074493;28;20479;-58
2022/03/02 00:26:12;;;;;;;42.40;35.22;;;;;;;4.46;nan;102539.03;5056678;28;20119;-58
2022/03/02 00:28:37;;;;;;;44.35;34.70;;;;;;;4.64;nan;102565.44;5056484;28;20033;-57
2022/03/02 00:31:03;;;;;;;45.92;34.85;;;;;;;4.15;nan;102488.00;5074284;28;20343;-62
2022/03/02 00:33:28;;;;;;;41.97;33.80;;;;;;;4.79;nan;102598.75;5074659;28;20120;-59
2022/03/02 00:35:53;;;;;;;42.78;33.30;;;;;;;4.79;nan;102602.25;5056369;28;20107;-58
2022/03/02 00:38:19;;;;;;;43.70;34.13;;;;;;;4.85;nan;102609.31;5074325;28;20032;-59
2022/03/02 00:40:44;;;;;;;48.10;33.97;;;;;;;4.92;nan;102624.25;5074255;28;20032;-57
2022/03/02 00:43:10;;;;;;;45.35;33.25;;;;;;;4.76;nan;102596.97;5056524;28;20033;-58
2022/03/02 00:45:36;;;;;;;43.17;33.90;;;;;;;4.91;nan;102612.03;5056133;28;20059;-61
2022/03/02 00:48:03;;;;;;;41.42;33.58;;;;;;;4.59;nan;102555.75;5074125;28;20388;-57
2022/03/02 00:50:29;;;;;;;41.75;34.33;;;;;;;4.96;nan;102619.09;5056319;28;20032;-58
2022/03/02 00:52:55;;;;;;;42.92;33.53;;;;;;;4.60;nan;102553.19;5056117;28;20423;-58
2022/03/02 00:55:21;;;;;;;42.17;31.75;;;;;;;4.57;nan;102532.28;5074011;28;20032;-56
2022/03/02 00:57:46;;;;;;;44.85;32.97;;;;;;;4.99;nan;102600.03;5073824;28;20036;-58
2022/03/02 01:00:12;;;;;;;43.53;34.33;;;;;;;4.97;nan;102601.72;5073738;28;20446;-59
2022/03/02 01:02:37;;;;;;;44.72;33.90;;;;;;;4.50;nan;102507.81;5073966;28;20036;-60
2022/03/02 01:05:06;;;;;;;42.95;33.85;;;;;;;4.88;nan;102581.56;5073860;28;20476;-59
2022/03/02 01:07:32;;;;;;;39.50;32.65;;;;;;;4.61;nan;102536.72;5073965;28;20450;-59
2022/03/02 01:09:58;;;;;;;42.40;33.17;;;;;;;4.83;nan;102571.88;5017130;28;1099051;-59
2022/03/02 01:12:23;;;;;;;48.35;33.55;;;;;;;4.86;nan;102567.63;5040457;28;20515;-60
2022/03/02 01:14:49;;;;;;;41.90;34.15;;;;;;;4.85;nan;102571.06;5040441;28;20040;-60
2022/03/02 01:17:15;;;;;;;40.17;32.35;;;;;;;4.54;nan;102506.13;5074745;28;20029;-57
2022/03/02 01:19:40;;;;;;;46.83;33.35;;;;;;;4.86;nan;102577.16;5074895;28;20395;-59
2022/03/02 01:22:06;;;;;;;43.25;31.85;;;;;;;4.60;nan;102526.25;5074619;28;20029;-58
2022/03/02 01:24:32;;;;;;;41.75;33.08;;;;;;;4.64;nan;102536.75;5040149;28;20086;-60
2022/03/02 01:26:57;;;;;;;41.95;31.92;;;;;;;4.51;nan;102511.28;5056723;28;20039;-58
2022/03/02 01:29:23;;;;;;;43.80;33.97;;;;;;;4.88;nan;102585.88;5074163;28;20396;-58
2022/03/02 01:31:49;;;;;;;41.67;33.55;;;;;;;4.85;nan;102578.88;5074760;28;20234;-58
2022/03/02 01:34:15;;;;;;;38.40;31.83;;;;;;;4.80;nan;102577.94;5074695;28;20036;-55
2022/03/02 01:36:40;;;;;;;40.47;32.42;;;;;;;4.79;nan;102573.56;5074613;28;20472;-59
2022/03/02 01:39:05;;;;;;;43.95;33.78;;;;;;;4.74;nan;102576.94;5074434;28;20025;-55
2022/03/02 01:41:31;;;;;;;42.05;33.25;;;;;;;4.70;nan;102572.53;5074300;28;20073;-59
2022/03/02 01:43:56;;;;;;;36.70;30.90;;;;;;;4.62;nan;102546.28;5074463;28;20067;-58
2022/03/02 01:46:22;;;;;;;41.67;33.13;;;;;;;4.69;nan;102568.16;5056564;28;20036;-60
2022/03/02 01:48:48;;;;;;;42.92;34.10;;;;;;;4.71;nan;102567.31;5074245;28;20028;-59
2022/03/02 01:51:13;;;;;;;41.83;31.92;;;;;;;4.45;nan;102509.47;5074256;28;20040;-57
2022/03/02 01:53:39;;;;;;;43.10;33.75;;;;;;;4.70;nan;102556.88;5074112;28;20037;-54
2022/03/02 01:56:06;;;;;;;41.67;33.85;;;;;;;4.69;nan;102562.94;5074029;28;20355;-59
2022/03/02 01:58:31;;;;;;;39.25;32.97;;;;;;;4.71;nan;102546.44;5074028;28;20113;-58
2022/03/02 02:00:58;;;;;;;37.83;31.83;;;;;;;4.56;nan;102525.28;5056000;28;20112;-57
2022/03/02 02:03:24;;;;;;;40.92;32.10;;;;;;;4.63;nan;102526.28;5074053;28;20463;-57
2022/03/02 02:05:49;;;;;;;41.03;33.00;;;;;;;4.75;nan;102547.41;5074001;28;20079;-58
2022/03/02 02:08:15;;;;;;;40.42;32.10;;;;;;;4.76;nan;102557.00;5073697;28;20036;-58
2022/03/02 02:10:41;;;;;;;45.85;32.60;;;;;;;4.78;nan;102545.72;5055672;28;20051;-56
2022/03/02 02:13:06;;;;;;;37.85;30.25;;;;;;;4.79;nan;102547.47;5073693;28;20060;-58
2022/03/02 02:15:32;;;;;;;40.72;31.33;;;;;;;4.80;nan;102546.63;5074247;28;20039;-59
2022/03/02 02:17:57;;;;;;;44.30;32.85;;;;;;;4.84;nan;102543.22;5073840;28;20419;-57
2022/03/02 02:20:23;;;;;;;38.75;31.33;;;;;;;4.82;nan;102539.69;5073767;28;20036;-59
2022/03/02 02:22:49;;;;;;;39.80;30.38;;;;;;;4.80;nan;102537.91;5055766;28;20051;-56
2022/03/02 02:25:14;;;;;;;40.83;32.17;;;;;;;4.76;nan;102518.72;5055690;28;20040;-61
2022/03/02 02:27:40;;;;;;;36.80;30.77;;;;;;;4.46;nan;102459.06;5072944;28;20131;-58
2022/03/02 02:30:07;;;;;;;40.30;31.08;;;;;;;4.47;nan;102459.94;5073244;28;20528;-59
2022/03/02 02:32:35;;;;;;;38.30;30.42;;;;;;;4.47;nan;102449.50;5055618;28;20162;-56
2022/03/02 02:35:00;;;;;;;39.00;31.55;;;;;;;4.94;nan;102529.47;5073512;28;20048;-58
2022/03/02 02:37:26;;;;;;;41.25;31.23;;;;;;;4.93;nan;102545.97;5073233;28;20033;-57
2022/03/02 02:40:01;;;;;;;38.72;29.80;;;;;;;4.93;nan;102526.84;5055343;28;20226;-57
2022/03/02 02:42:27;;;;;;;37.30;30.50;;;;;;;4.93;nan;102521.63;5055343;28;20055;-59
2022/03/02 02:44:54;;;;;;;39.75;29.48;;;;;;;4.72;nan;102484.72;5073213;28;20075;-57
2022/03/02 02:47:20;;;;;;;38.38;31.20;;;;;;;4.57;nan;102453.16;5073134;28;20064;-58
2022/03/02 02:49:45;;;;;;;37.67;31.65;;;;;;;4.92;nan;102512.94;5073149;28;20127;-56
2022/03/02 02:52:10;;;;;;;38.00;31.45;;;;;;;4.97;nan;102515.59;5073116;28;20036;-56
2022/03/02 02:54:36;;;;;;;38.95;30.83;;;;;;;4.96;nan;102519.09;5072903;28;20043;-59
2022/03/02 02:57:02;;;;;;;35.78;30.33;;;;;;;4.96;nan;102513.88;5072803;28;20043;-61
2022/03/02 02:59:27;;;;;;;38.53;30.02;;;;;;;4.96;nan;102525.16;5038350;28;20442;-60
2022/03/02 03:01:52;;;;;;;37.17;30.25;;;;;;;4.96;nan;102514.72;5072811;28;20032;-57
2022/03/02 03:04:18;;;;;;;36.20;30.35;;;;;;;4.59;nan;102441.00;5072517;28;20036;-54
2022/03/02 03:06:43;;;;;;;38.28;31.30;;;;;;;4.55;nan;102433.13;5072385;28;20462;-59
2022/03/02 03:09:08;;;;;;;38.17;30.23;;;;;;;4.86;nan;102481.50;5072531;28;20029;-56
2022/03/02 03:11:40;;;;;;;38.50;30.40;;;;;;;4.94;nan;102489.44;5072413;28;20517;-56
2022/03/02 03:14:09;;;;;;;40.03;31.02;;;;;;;4.76;nan;102461.31;5072812;28;20490;-56
2022/03/02 03:16:35;;;;;;;38.03;31.80;;;;;;;4.91;nan;102502.44;5054643;28;20021;-58
2022/03/02 03:19:00;;;;;;;37.60;30.60;;;;;;;4.89;nan;102499.81;5054645;28;20540;-58
2022/03/02 03:21:25;;;;;;;38.13;30.85;;;;;;;4.50;nan;102431.31;5054598;28;20032;-58
2022/03/02 03:23:51;;;;;;;35.50;30.45;;;;;;;4.90;nan;102500.72;5072415;28;20472;-57
2022/03/02 03:26:16;;;;;;;38.78;32.17;;;;;;;4.83;nan;102483.19;5054764;28;20399;-59
2022/03/02 03:28:41;;;;;;;39.95;32.53;;;;;;;4.50;nan;102432.19;5054613;28;20415;-58
2022/03/02 03:31:07;;;;;;;38.35;31.92;;;;;;;4.81;nan;102483.16;5072561;28;20384;-56
2022/03/02 03:33:33;;;;;;;37.75;31.08;;;;;;;4.79;nan;102482.25;5072231;28;20024;-57
2022/03/02 03:35:58;;;;;;;37.72;30.33;;;;;;;4.83;nan;102481.47;5054497;28;20420;-59
2022/03/02 03:38:23;;;;;;;37.53;30.42;;;;;;;4.80;nan;102476.19;5072302;28;20064;-58
2022/03/02 03:40:49;;;;;;;37.85;31.52;;;;;;;4.84;nan;102485.84;5072289;28;20029;-59
2022/03/02 03:43:14;;;;;;;39.63;31.10;;;;;;;4.85;nan;102489.28;5072281;28;20074;-59
2022/03/02 03:45:39;;;;;;;43.38;31.05;;;;;;;4.50;nan;102432.19;5072354;28;20082;-60
2022/03/02 03:48:05;;;;;;;39.67;31.63;;;;;;;4.75;nan;102474.34;5054259;28;20068;-59
2022/03/02 03:50:30;;;;;;;38.60;31.38;;;;;;;4.72;nan;102469.09;5072196;28;20036;-55
2022/03/02 03:52:56;;;;;;;38.47;32.08;;;;;;;4.81;nan;102480.56;5054140;28;20037;-57
2022/03/02 03:55:21;;;;;;;41.20;31.60;;;;;;;4.74;nan;102473.47;5072355;28;20037;-61
2022/03/02 03:57:47;;;;;;;38.45;31.60;;;;;;;4.79;nan;102477.03;5054246;28;20380;-58
2022/03/02 04:00:15;;;;;;;38.55;30.95;;;;;;;4.38;nan;102400.69;5054194;28;20036;-57
2022/03/02 04:02:42;;;;;;;39.75;30.70;;;;;;;4.76;nan;102487.41;5072193;28;20020;-56
2022/03/02 04:05:08;;;;;;;37.80;30.00;;;;;;;4.62;nan;102464.53;5054079;28;20429;-60
2022/03/02 04:07:33;;;;;;;40.55;32.90;;;;;;;4.72;nan;102474.31;5071837;28;20031;-57
2022/03/02 04:09:59;;;;;;;39.72;30.40;;;;;;;4.44;nan;102433.78;5054171;28;20053;-57
2022/03/02 04:12:24;;;;;;;36.15;30.15;;;;;;;4.67;nan;102455.09;5072238;28;20032;-57
2022/03/02 04:14:49;;;;;;;38.90;30.90;;;;;;;4.69;nan;102453.38;5072503;28;20078;-57
2022/03/02 04:17:15;;;;;;;35.70;29.85;;;;;;;4.57;nan;102438.41;5054163;28;20033;-58
2022/03/02 04:19:40;;;;;;;37.15;30.50;;;;;;;4.65;nan;102460.25;5072024;28;20044;-58
2022/03/02 04:22:06;;;;;;;38.13;29.83;;;;;;;4.28;nan;102382.25;5071819;28;20033;-59
2022/03/02 04:24:32;;;;;;;37.60;30.35;;;;;;;4.64;nan;102440.25;5072227;28;20050;-57
2022/03/02 04:26:57;;;;;;;35.75;29.85;;;;;;;4.60;nan;102440.19;5072099;28;20051;-58
2022/03/02 04:29:23;;;;;;;39.17;30.85;;;;;;;4.62;nan;102441.06;5071623;28;20499;-59
2022/03/02 04:31:48;;;;;;;38.55;30.17;;;;;;;4.62;nan;102441.94;5071735;28;20029;-58
2022/03/02 04:34:14;;;;;;;38.88;31.17;;;;;;;4.53;nan;102429.63;5071746;28;20365;-55
2022/03/02 04:36:39;;;;;;;35.50;29.95;;;;;;;4.60;nan;102440.19;5071720;28;20041;-57
2022/03/02 04:39:05;;;;;;;38.50;30.52;;;;;;;4.52;nan;102430.47;5054029;28;20040;-55
2022/03/02 04:41:30;;;;;;;39.22;30.50;;;;;;;4.61;nan;102435.00;5071754;28;20074;-58
2022/03/02 04:43:56;;;;;;;36.53;30.30;;;;;;;4.58;nan;102442.78;5071730;28;20025;-53
2022/03/02 04:46:21;;;;;;;36.42;30.42;;;;;;;4.58;nan;102434.94;5072023;28;20059;-54
2022/03/02 04:48:47;;;;;;;39.88;29.52;;;;;;;4.18;nan;102360.34;5071672;28;20291;-60
2022/03/02 04:51:12;;;;;;;38.38;29.30;;;;;;;4.17;nan;102365.56;5071847;28;20216;-57
2022/03/02 04:53:37;;;;;;;41.33;30.40;;;;;;;4.32;nan;102384.06;5075267;28;20078;-58
2022/03/02 04:56:03;;;;;;;40.10;30.38;;;;;;;4.48;nan;102406.94;5057294;28;20490;-58
2022/03/02 04:58:29;;;;;;;38.20;30.52;;;;;;;4.57;nan;102420.13;5074821;28;20029;-57
2022/03/02 05:00:55;;;;;;;36.45;28.88;;;;;;;4.58;nan;102419.31;5075058;28;20594;-59
2022/03/02 05:03:20;;;;;;;41.92;30.77;;;;;;;4.58;nan;102428.84;5075017;28;20028;-55
2022/03/02 05:05:46;;;;;;;37.40;29.45;;;;;;;4.48;nan;102417.38;5057066;28;20043;-58
2022/03/02 05:08:11;;;;;;;36.28;29.17;;;;;;;4.11;nan;102340.25;5074883;28;20037;-57
2022/03/02 05:10:37;;;;;;;36.20;29.55;;;;;;;4.54;nan;102418.38;5074979;28;20044;-58
2022/03/02 05:13:03;;;;;;;34.90;30.20;;;;;;;4.51;nan;102401.78;5074856;28;20033;-58
2022/03/02 05:15:28;;;;;;;35.33;28.73;;;;;;;4.58;nan;102415.81;5075018;28;20029;-59
2022/03/02 05:17:54;;;;;;;39.65;30.65;;;;;;;4.58;nan;102415.81;5057066;28;20467;-58
2022/03/02 05:20:20;;;;;;;38.60;29.27;;;;;;;4.60;nan;102427.13;5056914;28;20043;-57
2022/03/02 05:22:46;;;;;;;39.60;30.35;;;;;;;4.38;nan;102381.53;5039940;28;20662;-54
2022/03/02 05:25:13;;;;;;;37.97;31.02;;;;;;;4.12;nan;102344.59;5074756;28;20039;-58
2022/03/02 05:27:40;;;;;;;36.90;29.52;;;;;;;4.57;nan;102429.69;5040004;28;20106;-56
2022/03/02 05:30:06;;;;;;;37.20;30.35;;;;;;;4.57;nan;102422.75;5056737;28;20033;-59
2022/03/02 05:32:31;;;;;;;41.20;29.85;;;;;;;4.45;nan;102402.56;5074466;28;20070;-58
2022/03/02 05:34:56;;;;;;;39.38;31.77;;;;;;;3.45;nan;102230.50;5056496;28;20033;-57
2022/03/02 05:37:22;;;;;;;40.70;32.70;;;;;;;4.52;nan;102417.44;5074489;28;20055;-57
2022/03/02 05:39:47;;;;;;;36.20;29.42;;;;;;;4.25;nan;102375.25;5056602;28;20180;-58
2022/03/02 05:42:12;;;;;;;39.10;30.45;;;;;;;4.49;nan;102414.78;5074505;28;20029;-59
2022/03/02 05:44:38;;;;;;;38.97;30.67;;;;;;;4.13;nan;102353.31;5074472;28;20111;-58
2022/03/02 05:47:04;;;;;;;40.13;29.67;;;;;;;4.08;nan;102336.72;5074316;28;20032;-55
2022/03/02 05:49:29;;;;;;;36.72;29.10;;;;;;;4.44;nan;102411.22;5056174;28;20047;-57
2022/03/02 05:51:55;;;;;;;39.92;31.90;;;;;;;4.09;nan;102351.47;5074178;28;20404;-60
2022/03/02 05:54:20;;;;;;;35.10;29.92;;;;;;;4.46;nan;102409.53;5074296;28;20060;-59
2022/03/02 05:56:46;;;;;;;36.33;29.27;;;;;;;4.47;nan;102416.47;5074154;28;20094;-57
2022/03/02 05:59:12;;;;;;;40.20;30.35;;;;;;;4.49;nan;102417.38;5074347;28;20043;-57
2022/03/02 06:01:39;;;;;;;36.58;28.52;;;;;;;4.31;nan;102391.00;5056191;28;20036;-57
2022/03/02 06:04:05;;;;;;;37.45;30.55;;;;;;;4.45;nan;102414.72;5072716;28;20475;-62
2022/03/02 06:06:32;;;;;;;36.92;29.83;;;;;;;4.28;nan;102379.66;5073856;28;20032;-57
2022/03/02 06:09:02;;;;;;;39.30;30.60;;;;;;;4.04;nan;102340.09;5073902;28;20040;-55
2022/03/02 06:11:27;;;;;;;34.03;28.83;;;;;;;4.47;nan;102413.00;5073722;28;20060;-58
2022/03/02 06:13:54;;;;;;;36.63;29.92;;;;;;;4.47;nan;102415.59;5055885;28;20036;-59
2022/03/02 06:16:20;;;;;;;35.00;29.23;;;;;;;4.47;nan;102418.22;5073737;28;20051;-59
2022/03/02 06:18:45;;;;;;;37.97;30.48;;;;;;;4.19;nan;102369.06;5073659;28;20036;-57
2022/03/02 06:21:18;;;;;;;35.85;30.10;;;;;;;4.39;nan;102412.00;5073743;28;20036;-59
2022/03/02 06:23:43;;;;;;;39.10;29.48;;;;;;;4.38;nan;102420.66;5073635;28;20549;-60
2022/03/02 06:26:09;;;;;;;33.47;27.63;;;;;;;4.43;nan;102426.84;5039020;28;20037;-59
2022/03/02 06:28:34;;;;;;;33.08;28.52;;;;;;;4.41;nan;102426.81;5073310;28;20139;-58
2022/03/02 06:31:00;;;;;;;38.55;28.77;;;;;;;4.43;nan;102432.06;5073535;28;21417;-56
2022/03/02 06:33:25;;;;;;;39.17;30.55;;;;;;;4.08;nan;102365.38;5073013;28;20110;-54
2022/03/02 06:35:51;;;;;;;37.65;28.95;;;;;;;4.20;nan;102384.75;5073175;28;20196;-58
2022/03/02 06:38:18;;;;;;;34.47;27.70;;;;;;;4.37;nan;102421.53;5073439;28;20033;-56
2022/03/02 06:41:19;;;;;;;37.10;29.13;;;;;;;4.46;nan;102439.94;5055484;28;20032;-58
2022/03/02 06:44:10;;;;;;;;;;;;;;;4.47;nan;102445.16;5073591;28;20496;-60
2022/03/02 06:46:55;;;;;;;37.17;28.77;;;;;;;4.49;nan;102438.25;5069875;28;19912;-58
2022/03/02 06:49:25;;;;;;;36.83;28.55;;;;;;;4.00;nan;102351.34;5073136;28;20074;-58
2022/03/02 06:51:57;;;;;;;35.97;29.13;;;;;;;4.46;nan;102433.00;5073058;28;20024;-58
2022/03/02 06:54:26;;;;;;;38.75;29.70;;;;;;;4.51;nan;102449.59;5072953;28;20033;-55
2022/03/02 06:56:52;;;;;;;38.00;29.67;;;;;;;4.56;nan;102441.84;5055087;28;20416;-55
2022/03/02 06:59:29;;;;;;;38.17;30.02;;;;;;;4.34;nan;102411.91;5055021;28;20059;-60
2022/03/02 07:01:59;;;;;;;35.75;29.83;;;;;;;4.60;nan;102440.19;5072751;28;20032;-56
2022/03/02 07:04:24;;;;;;;35.50;30.13;;;;;;;4.68;nan;102446.38;5054890;28;20035;-57
2022/03/02 07:06:51;;;;;;;38.13;30.65;;;;;;;4.29;nan;102374.44;5072615;28;20104;-57
2022/03/02 07:09:18;;;;;;;34.90;29.73;;;;;;;4.73;nan;102450.84;5071928;28;20040;-59
2022/03/02 07:11:44;;;;;;;39.75;31.00;;;;;;;4.59;nan;102421.03;5053986;28;20102;-58
2022/03/02 07:14:13;;;;;;;34.92;30.20;;;;;;;4.41;nan;102384.22;5071677;28;20437;-59
2022/03/02 07:16:39;;;;;;;40.35;29.88;;;;;;;4.83;nan;102441.44;5072436;28;20027;-57
2022/03/02 07:19:05;;;;;;;38.05;29.77;;;;;;;4.83;nan;102433.59;5072557;28;20028;-61
2022/03/02 07:21:30;;;;;;;35.60;28.75;;;;;;;4.88;nan;102448.47;5072541;28;20039;-59
2022/03/02 07:24:01;;;;;;;33.53;29.13;;;;;;;4.58;nan;102388.00;5072653;28;20032;-59
2022/03/02 07:26:27;;;;;;;;;;;;;;;5.01;nan;102452.19;5054933;28;20074;-60
2022/03/02 07:28:52;;;;;;;34.90;28.70;;;;;;;5.06;nan;102458.34;5072256;28;19982;-59
2022/03/02 07:31:21;;;;;;;36.40;27.85;;;;;;;5.14;nan;102448.03;5054154;28;20456;-56
2022/03/02 07:33:47;;;;;;;33.67;27.42;;;;;;;5.17;nan;102454.16;5072244;28;20036;-59
2022/03/02 07:36:13;;;;;;;36.50;28.58;;;;;;;5.25;nan;102451.69;5072681;28;20060;-57
2022/03/02 07:38:39;;;;;;;35.90;28.73;;;;;;;5.23;nan;102441.19;5072219;28;20048;-59
2022/03/02 07:41:09;;;;;;;39.63;30.27;;;;;;;5.29;nan;102459.56;5072095;28;20036;-56
2022/03/02 07:43:38;;;;;;;33.72;28.75;;;;;;;5.33;nan;102440.50;5071784;28;20086;-60
2022/03/02 07:46:09;;;;;;;37.05;28.92;;;;;;;5.49;nan;102457.25;5071891;28;20032;-55
2022/03/02 07:48:34;;;;;;;35.88;28.80;;;;;;;5.48;nan;102455.50;5071298;28;20048;-58
2022/03/02 07:51:06;;;;;;;31.60;28.10;;;;;;;5.23;nan;102396.81;5053699;28;20029;-56
2022/03/02 07:53:39;;;;;;;30.52;27.13;;;;;;;5.39;nan;102401.41;5071553;28;20400;-56
2022/03/02 07:56:05;;;;;;;35.88;28.60;;;;;;;5.56;nan;102406.84;5053713;28;20029;-57
2022/03/02 07:58:31;;;;;;;34.83;28.50;;;;;;;6.00;nan;102457.09;5050156;28;20107;-59
2022/03/02 08:00:58;;;;;;;33.70;28.25;;;;;;;6.16;nan;102465.13;5071717;28;20394;-57
2022/03/02 08:03:25;;;;;;;33.28;26.05;;;;;;;6.29;nan;102465.25;5048145;28;20053;-55
2022/03/02 08:05:51;;;;;;;32.05;26.00;;;;;;;6.47;nan;102463.72;5034264;28;20449;-58
2022/03/02 08:08:16;;;;;;;31.52;25.55;;;;;;;6.87;nan;102467.59;5052018;28;20106;-56
2022/03/02 08:10:43;;;;;;;33.95;26.67;;;;;;;7.23;nan;102467.88;5051755;28;20436;-58
2022/03/02 08:13:10;;;;;;;28.77;24.45;;;;;;;7.64;nan;102477.75;5054056;28;20037;-59
2022/03/02 08:15:36;;;;;;;30.30;23.60;;;;;;;7.43;nan;102409.50;5070710;28;20041;-57
2022/03/02 08:18:01;;;;;;;26.52;23.20;;;;;;;8.06;nan;102495.41;5054136;28;20137;-56
2022/03/02 08:20:26;;;;;;;27.02;22.63;;;;;;;8.04;nan;102470.94;5054321;28;20040;-54
2022/03/02 08:22:53;;;;;;;26.90;23.48;;;;;;;7.46;nan;102423.50;5070585;28;20033;-57
2022/03/02 08:25:22;;;;;;;28.00;23.80;;;;;;;7.54;nan;102407.78;5071599;28;20063;-59
2022/03/02 08:27:50;;;;;;;25.70;21.42;;;;;;;7.96;nan;102451.69;5074729;28;20487;-54
2022/03/02 08:30:16;;;;;;;24.05;20.75;;;;;;;8.52;nan;102491.25;5075858;28;20033;-58
2022/03/02 08:32:46;;;;;;;23.80;21.20;;;;;;;9.00;nan;102497.44;5075703;28;20063;-56
2022/03/02 08:35:11;;;;;;;22.45;20.05;;;;;;;9.69;nan;102505.25;5056193;28;20101;-58
2022/03/02 08:37:37;;;;;;;22.40;19.38;;;;;;;10.03;nan;102491.13;5054259;28;20472;-56
2022/03/02 08:40:05;;;;;;;21.75;19.45;;;;;;;10.13;nan;102482.31;5037685;28;20422;-56
2022/03/02 08:42:31;;;;;;;23.33;19.65;;;;;;;10.59;nan;102485.59;5054026;28;20102;-58
2022/03/02 08:44:57;;;;;;;21.17;18.90;;;;;;;11.12;nan;102501.03;5037577;28;20438;-58
2022/03/02 08:47:25;;;;;;;23.75;19.40;;;;;;;11.12;nan;102495.75;5055364;28;20124;-60
2022/03/02 08:49:51;;;;;;;22.90;19.83;;;;;;;11.33;nan;102498.16;5054078;28;20127;-58
2022/03/02 08:52:18;;;;;;;21.55;18.25;;;;;;;11.01;nan;102447.50;5055184;28;20140;-58
2022/03/02 08:54:47;;;;;;;24.02;18.45;;;;;;;11.56;nan;102490.03;5044828;28;20044;-59
2022/03/02 08:57:14;;;;;;;21.60;18.83;;;;;;;11.74;nan;102492.50;5054691;28;20040;-58
2022/03/02 08:59:41;;;;;;;21.05;18.85;;;;;;;11.46;nan;102433.91;5055546;28;20040;-58
2022/03/02 09:02:07;;;;;;;20.30;17.80;;;;;;;11.54;nan;102476.00;5055324;28;20071;-56
2022/03/02 09:04:35;;;;;;;23.27;19.77;;;;;;;11.17;nan;102438.59;5038188;28;20037;-56
2022/03/02 09:07:04;;;;;;;23.90;19.13;;;;;;;11.53;nan;102477.75;5058923;28;20515;-58
2022/03/02 09:09:30;;;;;;;24.88;18.60;;;;;;;11.52;nan;102494.50;5052556;28;20075;-57
2022/03/02 09:11:55;;;;;;;21.65;18.40;;;;;;;11.27;nan;102488.56;5031031;28;20127;-55
2022/03/02 09:14:22;;;;;;;21.38;18.80;;;;;;;11.03;nan;102427.31;5028316;28;20040;-56
2022/03/02 09:16:48;;;;;;;21.05;18.83;;;;;;;11.74;nan;102455.59;5028534;28;20041;-56
2022/03/02 09:19:14;;;;;;;19.75;17.67;;;;;;;12.24;nan;102482.22;5029751;28;20084;-57
2022/03/02 09:21:41;;;;;;;23.42;18.33;;;;;;;12.15;nan;102434.84;5013126;28;20044;-58
2022/03/02 09:24:07;;;;;;;20.20;18.05;;;;;;;11.93;nan;102416.66;5015117;28;20037;-57
2022/03/02 09:26:33;;;;;;;22.70;17.45;;;;;;;12.40;nan;102469.69;5012909;28;20487;-57
2022/03/02 09:29:02;;;;;;;19.52;17.15;;;;;;;12.53;nan;102486.22;5014029;28;20049;-55
2022/03/02 09:31:28;;;;;;;21.15;17.55;;;;;;;12.53;nan;102483.59;5029207;28;20037;-59
2022/03/02 09:33:56;;;;;;;20.60;17.90;;;;;;;12.21;nan;102445.31;5028776;28;20076;-57
2022/03/02 09:36:24;;;;;;;20.92;17.20;;;;;;;12.18;nan;102424.22;5034448;28;20034;-57
2022/03/02 09:38:51;;;;;;;22.08;17.00;;;;;;;12.93;nan;102484.72;5013429;28;20056;-60
2022/03/02 09:41:31;;;;;;;22.55;17.65;;;;;;;13.25;nan;102478.97;5012491;28;20073;-56
2022/03/02 09:43:58;;;;;;;19.80;17.67;;;;;;;13.39;nan;102482.22;4995101;28;20030;-56
2022/03/02 09:46:51;;;;;;;20.55;16.15;;;;;;;13.24;nan;102479.84;5013455;28;20038;-58
2022/03/02 09:49:20;;;;;;;20.95;17.15;;;;;;;13.19;nan;102474.63;5011613;28;20054;-57
2022/03/02 09:51:51;;;;;;;20.75;17.98;;;;;;;12.84;nan;102476.97;5013486;28;20434;-59
2022/03/02 09:54:20;;;;;;;19.58;17.23;;;;;;;12.60;nan;102371.66;5045421;28;20040;-57
2022/03/02 09:56:48;;;;;;;17.73;15.05;;;;;;;12.61;nan;102415.69;5013446;28;20037;-59
2022/03/02 09:59:14;;;;;;;23.08;20.58;;;;;;;12.51;nan;102467.78;5012405;28;20483;-60
2022/03/02 10:01:42;;;;;;;25.02;22.05;;;;;;;12.42;nan;102473.19;5012167;28;20074;-57
2022/03/02 10:04:22;;;;;;;27.60;22.00;;;;;;;12.25;nan;102473.44;5012638;28;20109;-58
2022/03/02 10:06:50;;;;;;;25.53;22.07;;;;;;;12.57;nan;102472.09;5013751;28;20037;-57
2022/03/02 10:09:20;;;;;;;25.58;23.00;;;;;;;12.43;nan;102468.78;5012201;28;20034;-56
2022/03/02 10:11:48;;;;;;;26.65;22.08;;;;;;;12.30;nan;102421.41;5043976;28;20123;-58
2022/03/02 10:14:13;;;;;;;29.27;22.02;;;;;;;12.68;nan;102476.31;5052707;28;20033;-58
2022/03/02 10:16:43;;;;;;;25.25;21.38;;;;;;;13.40;nan;102474.25;5035341;28;20048;-58
2022/03/02 10:19:16;;;;;;;23.27;20.50;;;;;;;13.43;nan;102468.91;5052989;28;20227;-56
2022/03/02 10:21:46;;;;;;;23.70;20.48;;;;;;;13.43;nan;102409.84;5068582;28;20059;-58
2022/03/02 10:24:17;;;;;;;27.40;21.27;;;;;;;13.62;nan;102468.56;5035095;28;20064;-58
2022/03/02 10:26:50;;;;;;;23.85;21.15;;;;;;;13.61;nan;102459.75;5018526;28;20025;-58
2022/03/02 10:29:31;;;;;;;24.08;20.52;;;;;;;14.03;nan;102437.72;5034972;28;20412;-58
2022/03/02 10:32:09;;;;;;;24.75;21.45;;;;;;;14.09;nan;102410.25;5052457;28;20124;-55
2022/03/02 10:34:52;;;;;;;23.92;21.33;;;;;;;14.14;nan;102403.06;5052474;28;20507;-59
2022/03/02 10:37:24;;;;;;;24.05;19.90;;;;;;;14.36;nan;102395.53;5034410;28;20028;-58
2022/03/02 10:39:52;;;;;;;23.38;20.52;;;;;;;15.01;nan;102465.47;5052686;28;20049;-55
2022/03/02 10:42:32;;;;;;;22.30;18.08;;;;;;;15.09;nan;102439.66;5052305;28;20040;-55
2022/03/02 10:45:22;;;;;;;20.02;17.92;;;;;;;14.96;nan;102425.84;5052011;28;20037;-57
2022/03/02 10:47:54;;;;;;;22.33;18.25;;;;;;;14.92;nan;102378.22;5050991;28;20029;-54
2022/03/02 10:50:22;;;;;;;19.90;17.80;;;;;;;15.49;nan;102424.47;5051030;28;20029;-57
2022/03/02 10:52:48;;;;;;;19.20;17.13;;;;;;;15.50;nan;102382.88;5054286;28;20032;-57
2022/03/02 10:55:15;;;;;;;18.63;16.10;;;;;;;15.69;nan;102431.84;5053218;28;20040;-60
2022/03/02 10:57:41;;;;;;;22.65;17.27;;;;;;;15.39;nan;102384.91;5054127;28;20130;-57
2022/03/02 11:00:13;;;;;;;20.50;17.33;;;;;;;15.34;nan;102385.03;5038091;28;20024;-57
2022/03/02 11:02:46;;;;;;;21.20;16.50;;;;;;;15.31;nan;102439.97;5071688;28;20020;-54
2022/03/02 11:05:13;;;;;;;22.00;16.83;;;;;;;15.15;nan;102387.31;5071759;28;20036;-57
2022/03/02 11:07:40;;;;;;;22.17;16.90;;;;;;;15.32;nan;102425.78;5053846;28;20476;-54
2022/03/02 11:10:07;;;;;;;21.65;17.95;;;;;;;15.11;nan;102400.69;5071583;28;20039;-57
2022/03/02 11:12:33;;;;;;;19.67;16.60;;;;;;;15.91;nan;102373.66;5053991;28;20111;-56
2022/03/02 11:15:04;;;;;;;18.67;16.70;;;;;;;16.37;nan;102411.22;5071729;28;20125;-56
2022/03/02 11:17:29;;;;;;;;;;;;;;;17.02;nan;102424.13;5057305;28;20032;-57
2022/03/02 11:19:57;;;;;;;21.65;16.15;;;;;;;17.54;nan;102415.22;5076544;28;20302;-54
2022/03/02 11:22:25;;;;;;;17.15;15.35;;;;;;;18.17;nan;102411.94;5083206;28;20059;-58
2022/03/02 11:24:56;;;;;;;18.08;16.17;;;;;;;17.98;nan;102371.81;5087337;28;20032;-58
2022/03/02 11:27:40;;;;;;;22.65;18.08;;;;;;;17.36;nan;102414.09;5058641;28;20020;-55
2022/03/02 11:30:16;;;;;;;20.13;16.67;;;;;;;17.00;nan;102363.03;5076384;28;20240;-59
2022/03/02 11:32:47;;;;;;;18.70;16.58;;;;;;;17.16;nan;102411.25;5069222;28;20076;-57